createdAt,value
2023-01-17T00:00:02.647Z,86023.56
2023-01-17T00:02:47.288Z,86021.84
2023-01-17T00:05:32.047Z,86017.56
2023-01-17T00:08:16.661Z,86016.22
2023-01-17T00:11:01.389Z,86013.47
2023-01-17T00:13:46.113Z,86011.44
2023-01-17T00:16:31.035Z,86018.59
2023-01-17T00:19:15.759Z,86005.94
2023-01-17T00:22:00.633Z,86008.84
2023-01-17T00:24:45.502Z,86008.47
2023-01-17T00:27:30.184Z,86013.47
2023-01-17T00:30:14.979Z,86016.38
2023-01-17T00:32:59.724Z,86012.25
2023-01-17T00:35:44.499Z,86001.81
2023-01-17T00:38:29.216Z,86011.56
2023-01-17T00:41:14.032Z,86013.09
2023-01-17T00:43:58.698Z,86007.97
2023-01-17T00:46:43.524Z,86015.50
2023-01-17T00:49:28.633Z,85990.34
2023-01-17T00:52:13.509Z,85991.03
2023-01-17T00:54:58.322Z,85988.28
2023-01-17T00:57:43.190Z,85991.19
2023-01-17T01:00:27.923Z,85994.25
2023-01-17T01:03:12.614Z,85990.16
2023-01-17T01:05:57.374Z,85980.97
2023-01-17T01:08:42.038Z,85986.28
2023-01-17T01:11:26.932Z,85981.13
2023-01-17T01:14:11.647Z,85975.00
2023-01-17T01:16:56.467Z,85971.38
2023-01-17T01:19:41.113Z,85966.75
2023-01-17T01:22:41.347Z,85972.00
2023-01-17T01:25:26.079Z,85978.66
2023-01-17T01:28:10.812Z,85970.31
2023-01-17T01:30:55.557Z,85971.78
2023-01-17T01:33:40.258Z,85962.88
2023-01-17T01:36:25.054Z,85969.81
2023-01-17T01:39:09.751Z,85964.66
2023-01-17T01:41:54.462Z,85960.47
2023-01-17T01:44:39.226Z,85965.56
2023-01-17T01:47:23.855Z,85965.22
2023-01-17T01:50:08.540Z,85965.19
2023-01-17T01:52:53.383Z,85958.22
2023-01-17T01:55:38.113Z,85946.69
2023-01-17T01:58:22.790Z,85947.97
2023-01-17T02:01:07.782Z,85947.69
2023-01-17T02:03:52.893Z,85957.03
2023-01-17T02:06:37.625Z,85956.75
2023-01-17T02:09:22.456Z,85954.06
2023-01-17T02:12:07.296Z,85957.22
2023-01-17T02:14:52.027Z,85958.31
2023-01-17T02:17:36.845Z,85950.31
2023-01-17T02:20:21.455Z,85955.34
2023-01-17T02:23:06.260Z,85951.34
2023-01-17T02:25:50.980Z,85945.97
2023-01-17T02:28:35.857Z,85932.69
2023-01-17T02:31:20.811Z,85932.94
2023-01-17T02:34:05.512Z,85928.59
2023-01-17T02:36:50.152Z,85916.38
2023-01-17T02:39:34.824Z,85916.28
2023-01-17T02:42:19.680Z,85915.28
2023-01-17T02:45:04.358Z,85896.41
2023-01-17T02:47:49.271Z,85893.53
2023-01-17T02:50:34.093Z,85887.72
2023-01-17T02:53:18.987Z,85878.34
2023-01-17T02:56:03.664Z,85875.44
2023-01-17T02:58:48.451Z,85875.09
2023-01-17T03:01:33.344Z,85877.84
2023-01-17T03:04:18.477Z,85873.56
2023-01-17T03:07:03.312Z,85872.31
2023-01-17T03:09:48.080Z,85871.22
2023-01-17T03:12:32.920Z,85870.53
2023-01-17T03:15:17.622Z,85870.38
2023-01-17T03:18:02.520Z,85864.63
2023-01-17T03:20:47.223Z,85862.97
2023-01-17T03:23:32.004Z,85856.31
2023-01-17T03:26:16.939Z,85839.94
2023-01-17T03:29:01.711Z,85844.34
2023-01-17T03:31:46.384Z,85838.00
2023-01-17T03:34:31.075Z,85838.72
2023-01-17T03:37:15.953Z,85840.75
2023-01-17T03:40:00.686Z,85825.22
2023-01-17T03:42:45.416Z,85831.88
2023-01-17T03:45:30.157Z,85827.47
2023-01-17T03:48:14.863Z,85822.84
2023-01-17T03:50:59.765Z,85823.91
2023-01-17T03:53:44.461Z,85810.94
2023-01-17T03:56:29.102Z,85800.56
2023-01-17T03:59:13.788Z,85792.88
2023-01-17T04:01:58.451Z,85785.69
2023-01-17T04:04:43.181Z,85780.06
2023-01-17T04:07:27.996Z,85774.41
2023-01-17T04:10:12.620Z,85772.91
2023-01-17T04:12:57.398Z,85759.56
2023-01-17T04:15:41.993Z,85748.66
2023-01-17T04:18:26.816Z,85747.44
2023-01-17T04:21:11.570Z,85741.81
2023-01-17T04:23:56.437Z,85735.50
2023-01-17T04:26:41.137Z,85738.75
2023-01-17T04:29:25.947Z,85749.50
2023-01-17T04:32:10.639Z,85751.38
2023-01-17T04:34:55.321Z,85743.69
2023-01-17T04:37:40.154Z,85746.94
2023-01-17T04:40:24.833Z,85755.97
2023-01-17T04:43:09.637Z,85750.50
2023-01-17T04:45:54.404Z,85741.63
2023-01-17T04:48:39.087Z,85747.44
2023-01-17T04:51:23.716Z,85734.81
2023-01-17T04:54:08.541Z,85740.47
2023-01-17T04:56:53.255Z,85726.97
2023-01-17T04:59:37.929Z,85716.72
2023-01-17T05:02:22.657Z,85704.63
2023-01-17T05:05:07.303Z,85703.06
2023-01-17T05:07:52.046Z,85693.84
2023-01-17T05:10:36.870Z,85682.72
2023-01-17T05:13:21.663Z,85680.63
2023-01-17T05:16:06.479Z,85673.66
2023-01-17T05:18:51.669Z,85663.72
2023-01-17T05:21:36.388Z,85654.31
2023-01-17T05:24:21.092Z,85645.97
2023-01-17T05:27:05.906Z,85635.22
2023-01-17T05:29:50.697Z,85632.50
2023-01-17T05:32:35.344Z,85636.41
2023-01-17T05:35:20.170Z,85637.94
2023-01-17T05:38:04.960Z,85635.00
2023-01-17T05:40:49.662Z,85634.66
2023-01-17T05:43:34.450Z,85640.59
2023-01-17T05:46:19.301Z,85639.47
2023-01-17T05:49:04.016Z,85630.41
2023-01-17T05:51:48.807Z,85628.53
2023-01-17T05:54:33.591Z,85628.41
2023-01-17T05:57:18.300Z,85639.03
2023-01-17T06:00:03.045Z,85653.19
2023-01-17T06:02:48.079Z,85659.63
2023-01-17T06:05:33.251Z,85656.34
2023-01-17T06:08:18.081Z,85660.94
2023-01-17T06:11:02.906Z,85672.47
2023-01-17T06:13:47.760Z,85653.41
2023-01-17T06:16:32.340Z,85653.50
2023-01-17T06:19:17.180Z,85650.16
2023-01-17T06:22:01.776Z,85646.75
2023-01-17T06:24:46.585Z,85652.88
2023-01-17T06:27:31.365Z,85643.28
2023-01-17T06:30:16.259Z,85634.41
2023-01-17T06:33:01.034Z,85635.53
2023-01-17T06:35:45.857Z,85642.69
2023-01-17T06:38:30.669Z,85640.81
2023-01-17T06:41:15.402Z,85629.88
2023-01-17T06:44:00.061Z,85625.34
2023-01-17T06:46:45.007Z,85625.69
2023-01-17T06:49:30.081Z,85639.03
2023-01-17T06:52:14.800Z,85632.84
2023-01-17T06:55:00.027Z,85616.13
2023-01-17T06:57:44.989Z,85618.00
2023-01-17T07:00:30.314Z,85606.91
2023-01-17T07:03:15.289Z,85599.72
2023-01-17T07:05:59.877Z,85600.06
2023-01-17T07:08:45.270Z,85604.84
2023-01-17T07:11:30.038Z,85596.44
2023-01-17T07:14:14.801Z,85597.34
2023-01-17T07:16:59.625Z,85585.38
2023-01-17T07:19:44.479Z,85575.28
2023-01-17T07:22:29.274Z,85568.44
2023-01-17T07:25:13.998Z,85570.31
2023-01-17T07:27:58.840Z,85565.56
2023-01-17T07:30:43.426Z,85577.88
2023-01-17T07:33:28.198Z,85568.84
2023-01-17T07:36:12.853Z,85576.03
2023-01-17T07:38:57.625Z,85577.91
2023-01-17T07:41:42.320Z,85581.28
2023-01-17T07:44:27.168Z,85572.94
2023-01-17T07:47:11.811Z,85561.13
2023-01-17T07:49:56.632Z,85557.50
2023-01-17T07:52:41.387Z,85565.53
2023-01-17T07:55:26.027Z,85570.25
2023-01-17T07:58:10.739Z,85565.97
2023-01-17T08:00:55.590Z,85568.34
2023-01-17T08:03:40.743Z,85573.47
2023-01-17T08:06:25.431Z,85567.63
2023-01-17T08:09:10.352Z,85568.78
2023-01-17T08:11:54.941Z,85567.06
2023-01-17T08:14:39.751Z,85579.34
2023-01-17T08:17:24.607Z,85578.84
2023-01-17T08:20:09.357Z,85583.63
2023-01-17T08:22:54.195Z,85576.47
2023-01-17T08:25:38.841Z,85587.22
2023-01-17T08:28:23.800Z,85583.13
2023-01-17T08:31:08.571Z,85582.81
2023-01-17T08:33:53.383Z,85596.13
2023-01-17T08:36:38.007Z,85592.03
2023-01-17T08:39:22.877Z,85581.63
2023-01-17T08:42:07.532Z,85586.91
2023-01-17T08:44:52.350Z,85586.59
2023-01-17T08:47:36.962Z,85590.31
2023-01-17T08:50:21.635Z,85590.31
2023-01-17T08:53:06.349Z,85587.59
2023-01-17T08:55:51.120Z,85578.50
2023-01-17T08:58:35.865Z,85586.84
2023-01-17T09:01:20.581Z,85595.03
2023-01-17T09:04:05.440Z,85591.75
2023-01-17T09:06:50.098Z,85593.25
2023-01-17T09:09:36.095Z,85603.00
2023-01-17T09:12:20.755Z,85606.75
2023-01-17T09:15:05.496Z,85605.03
2023-01-17T09:17:50.334Z,85595.63
2023-01-17T09:20:35.138Z,85599.47
2023-01-17T09:23:19.920Z,85610.94
2023-01-17T09:26:04.599Z,85591.75
2023-01-17T09:28:49.448Z,85599.72
2023-01-17T09:31:34.189Z,85586.16
2023-01-17T09:34:18.925Z,85583.72
2023-01-17T09:37:03.619Z,85580.72
2023-01-17T09:39:48.370Z,85581.34
2023-01-17T09:42:33.009Z,85584.31
2023-01-17T09:45:17.695Z,85576.03
2023-01-17T09:48:02.379Z,85572.72
2023-01-17T09:50:47.241Z,85559.44
2023-01-17T09:53:31.964Z,85562.22
2023-01-17T09:56:16.703Z,85554.22
2023-01-17T09:59:01.585Z,85562.53
2023-01-17T10:01:46.451Z,85571.22
2023-01-17T10:04:31.539Z,85566.53
2023-01-17T10:07:16.386Z,85558.72
2023-01-17T10:10:01.151Z,85563.66
2023-01-17T10:12:45.909Z,85563.44
2023-01-17T10:15:30.689Z,85564.50
2023-01-17T10:18:28.883Z,85556.50
2023-01-17T10:21:14.400Z,85557.53
2023-01-17T10:23:59.314Z,85544.72
2023-01-17T10:26:44.020Z,85540.75
2023-01-17T10:29:28.951Z,85544.69
2023-01-17T10:32:13.777Z,85531.75
2023-01-17T10:34:58.548Z,85535.56
2023-01-17T10:37:43.161Z,85531.03
2023-01-17T10:40:28.025Z,85528.63
2023-01-17T10:43:12.835Z,85525.47
2023-01-17T10:45:57.715Z,85516.00
2023-01-17T10:48:42.417Z,85508.78
2023-01-17T10:51:27.244Z,85498.34
2023-01-17T10:54:11.957Z,85493.94
2023-01-17T10:56:56.776Z,85490.13
2023-01-17T10:59:41.691Z,85471.47
2023-01-17T11:02:26.417Z,85474.81
2023-01-17T11:05:11.709Z,85463.75
2023-01-17T11:07:56.331Z,85454.03
2023-01-17T11:10:41.029Z,85445.97
2023-01-17T11:13:25.811Z,85432.63
2023-01-17T11:16:10.770Z,85437.38
2023-01-17T11:18:55.916Z,85432.78
2023-01-17T11:21:40.728Z,85440.53
2023-01-17T11:24:25.522Z,85443.88
2023-01-17T11:27:10.347Z,85443.25
2023-01-17T11:29:55.103Z,85440.88
2023-01-17T11:32:39.841Z,85431.22
2023-01-17T11:35:24.529Z,85448.69
2023-01-17T11:38:09.260Z,85452.84
2023-01-17T11:40:54.129Z,85440.75
2023-01-17T11:43:38.721Z,85434.63
2023-01-17T11:46:23.577Z,85433.75
2023-01-17T11:49:08.823Z,85428.22
2023-01-17T11:51:53.622Z,85424.97
2023-01-17T11:54:38.401Z,85410.78
2023-01-17T11:57:23.057Z,85409.13
2023-01-17T12:00:07.883Z,85407.38
2023-01-17T12:02:52.551Z,85400.50
2023-01-17T12:05:37.253Z,85394.16
2023-01-17T12:08:21.939Z,85398.19
2023-01-17T12:11:06.765Z,85410.81
2023-01-17T12:13:51.497Z,85412.94
2023-01-17T12:16:36.288Z,85399.00
2023-01-17T12:19:21.100Z,85393.50
2023-01-17T12:22:05.979Z,85400.78
2023-01-17T12:24:50.807Z,85393.31
2023-01-17T12:27:35.512Z,85393.56
2023-01-17T12:30:20.298Z,85386.94
2023-01-17T12:33:05.056Z,85395.69
2023-01-17T12:35:49.803Z,85403.66
2023-01-17T12:38:34.409Z,85412.16
2023-01-17T12:41:19.058Z,85413.00
2023-01-17T12:44:03.855Z,85413.88
2023-01-17T12:46:48.577Z,85412.91
2023-01-17T12:49:33.305Z,85404.66
2023-01-17T12:52:17.940Z,85398.97
2023-01-17T12:55:02.741Z,85391.28
2023-01-17T12:57:47.414Z,85397.53
2023-01-17T13:00:32.309Z,85402.03
2023-01-17T13:03:17.155Z,85407.47
2023-01-17T13:06:01.815Z,85411.13
2023-01-17T13:08:46.587Z,85409.94
2023-01-17T13:11:31.278Z,85423.22
2023-01-17T13:14:15.942Z,85423.00
2023-01-17T13:17:00.877Z,85432.47
2023-01-17T13:19:45.553Z,85418.78
2023-01-17T13:22:30.510Z,85429.72
2023-01-17T13:25:15.740Z,85426.16
2023-01-17T13:28:00.507Z,85430.00
2023-01-17T13:30:45.240Z,85427.88
2023-01-17T13:33:30.001Z,85428.63
2023-01-17T13:36:14.755Z,85426.25
2023-01-17T13:38:59.344Z,85430.84
2023-01-17T13:41:44.100Z,85429.91
2023-01-17T13:44:28.863Z,85427.44
2023-01-17T13:47:13.613Z,85424.50
2023-01-17T13:49:58.545Z,85424.53
2023-01-17T13:52:43.230Z,85407.47
2023-01-17T13:55:28.007Z,85405.19
2023-01-17T13:58:12.674Z,85401.38
2023-01-17T14:00:57.491Z,85398.41
2023-01-17T14:03:42.509Z,85391.22
2023-01-17T14:06:27.218Z,85391.09
2023-01-17T14:09:11.900Z,85395.03
2023-01-17T14:11:56.738Z,85396.06
2023-01-17T14:14:41.592Z,85393.91
2023-01-17T14:17:26.740Z,85397.13
2023-01-17T14:20:11.391Z,85400.25
2023-01-17T14:22:56.166Z,85398.34
2023-01-17T14:25:40.944Z,85399.16
2023-01-17T14:28:25.575Z,85404.84
2023-01-17T14:31:10.351Z,85400.00
2023-01-17T14:33:54.967Z,85397.16
2023-01-17T14:36:39.774Z,85390.53
2023-01-17T14:39:24.343Z,85396.38
2023-01-17T14:42:09.174Z,85406.63
2023-01-17T14:44:53.844Z,85408.19
2023-01-17T14:47:38.622Z,85403.41
2023-01-17T14:50:23.352Z,85410.81
2023-01-17T14:53:08.035Z,85410.41
2023-01-17T14:55:52.716Z,85408.91
2023-01-17T14:58:37.397Z,85407.41
2023-01-17T15:01:22.339Z,85400.88
2023-01-17T15:04:07.404Z,85404.19
2023-01-17T15:06:52.181Z,85410.34
2023-01-17T15:09:36.859Z,85417.94
2023-01-17T15:12:21.617Z,85407.75
2023-01-17T15:15:06.244Z,85411.38
2023-01-17T15:17:51.065Z,85415.78
2023-01-17T15:20:35.834Z,85418.41
2023-01-17T15:23:20.572Z,85416.97
2023-01-17T15:26:05.259Z,85412.00
2023-01-17T15:28:49.880Z,85410.41
2023-01-17T15:31:34.688Z,85402.56
2023-01-17T15:34:19.413Z,85402.78
2023-01-17T15:37:04.310Z,85405.81
2023-01-17T15:39:48.969Z,85405.34
2023-01-17T15:42:33.823Z,85410.66
2023-01-17T15:45:18.471Z,85406.31
2023-01-17T15:48:03.388Z,85397.56
2023-01-17T15:50:48.244Z,85396.16
2023-01-17T15:53:33.292Z,85398.94
2023-01-17T15:56:18.284Z,85395.88
2023-01-17T15:59:03.028Z,85400.53
2023-01-17T16:01:47.945Z,85412.81
2023-01-17T16:04:33.035Z,85415.69
2023-01-17T16:07:17.855Z,85419.25
2023-01-17T16:10:02.573Z,85429.28
2023-01-17T16:12:47.426Z,85426.56
2023-01-17T16:15:32.131Z,85432.47
2023-01-17T16:18:16.955Z,85431.09
2023-01-17T16:21:01.671Z,85433.13
2023-01-17T16:23:46.339Z,85431.03
2023-01-17T16:26:31.345Z,85431.84
2023-01-17T16:29:16.018Z,85436.22
2023-01-17T16:32:00.909Z,85425.78
2023-01-17T16:34:45.612Z,85439.91
2023-01-17T16:37:30.370Z,85442.53
2023-01-17T16:40:15.022Z,85435.50
2023-01-17T16:42:59.815Z,85443.19
2023-01-17T16:45:44.490Z,85441.31
2023-01-17T16:48:29.247Z,85438.91
2023-01-17T16:51:13.792Z,85453.25
2023-01-17T16:53:58.634Z,85452.31
2023-01-17T16:56:43.526Z,85456.75
2023-01-17T16:59:36.833Z,85462.88
2023-01-17T17:02:31.180Z,85468.13
2023-01-17T17:05:15.812Z,85474.72
2023-01-17T17:08:00.589Z,85479.31
2023-01-17T17:10:45.334Z,85490.16
2023-01-17T17:13:30.163Z,85488.72
2023-01-17T17:16:15.017Z,85492.41
2023-01-17T17:19:00.087Z,85492.13
2023-01-17T17:21:44.773Z,85501.78
2023-01-17T17:24:29.501Z,85500.81
2023-01-17T17:27:14.100Z,85503.91
2023-01-17T17:29:58.726Z,85509.78
2023-01-17T17:32:43.390Z,85524.19
2023-01-17T17:35:27.974Z,85517.69
2023-01-17T17:38:12.792Z,85520.84
2023-01-17T17:40:57.495Z,85524.78
2023-01-17T17:43:42.375Z,85517.09
2023-01-17T17:46:27.143Z,85524.63
2023-01-17T17:49:12.265Z,85523.00
2023-01-17T17:51:57.038Z,85529.28
2023-01-17T17:54:41.704Z,85529.88
2023-01-17T17:57:26.476Z,85535.72
2023-01-17T18:00:11.125Z,85541.06
2023-01-17T18:02:55.981Z,85534.34
2023-01-17T18:05:40.679Z,85539.72
2023-01-17T18:08:25.547Z,85533.81
2023-01-17T18:11:10.231Z,85550.09
2023-01-17T18:13:55.073Z,85549.47
2023-01-17T18:16:39.862Z,85544.72
2023-01-17T18:19:24.548Z,85552.41
2023-01-17T18:22:09.341Z,85554.28
2023-01-17T18:24:54.110Z,85555.66
2023-01-17T18:27:38.897Z,85557.66
2023-01-17T18:30:23.597Z,85565.16
2023-01-17T18:33:08.352Z,85560.69
2023-01-17T18:35:53.208Z,85563.53
2023-01-17T18:38:38.110Z,85570.28
2023-01-17T18:41:22.811Z,85578.41
2023-01-17T18:44:07.630Z,85578.28
2023-01-17T18:46:52.591Z,85574.84
2023-01-17T18:49:37.194Z,85576.88
2023-01-17T18:52:21.993Z,85575.34
2023-01-17T18:55:06.746Z,85579.94
2023-01-17T18:57:51.451Z,85581.50
2023-01-17T19:00:36.313Z,85579.31
2023-01-17T19:03:20.997Z,85580.13
2023-01-17T19:06:05.747Z,85576.16
2023-01-17T19:08:50.719Z,85584.66
2023-01-17T19:11:35.580Z,85575.41
2023-01-17T19:14:20.488Z,85575.19
2023-01-17T19:17:05.600Z,85564.81
2023-01-17T19:19:50.377Z,85568.03
2023-01-17T19:22:35.311Z,85574.94
2023-01-17T19:25:19.993Z,85585.56
2023-01-17T19:28:04.812Z,85580.56
2023-01-17T19:30:49.497Z,85574.94
2023-01-17T19:33:34.126Z,85567.84
2023-01-17T19:36:18.939Z,85576.78
2023-01-17T19:39:05.569Z,85574.66
2023-01-17T19:41:50.743Z,85584.38
2023-01-17T19:44:35.657Z,85584.94
2023-01-17T19:47:20.626Z,85584.66
2023-01-17T19:50:05.278Z,85576.28
2023-01-17T19:52:51.937Z,85587.56
2023-01-17T19:55:37.825Z,85593.34
2023-01-17T19:58:22.514Z,85588.88
2023-01-17T20:01:07.554Z,85600.25
2023-01-17T20:03:52.296Z,85593.47
2023-01-17T20:06:37.083Z,85589.44
2023-01-17T20:09:21.835Z,85597.19
2023-01-17T20:12:06.615Z,85589.44
2023-01-17T20:14:51.457Z,85594.00
2023-01-17T20:17:36.311Z,85595.00
2023-01-17T20:20:21.053Z,85592.81
2023-01-17T20:23:05.772Z,85582.75
2023-01-17T20:25:50.515Z,85581.59
2023-01-17T20:28:35.264Z,85580.03
2023-01-17T20:31:20.278Z,85571.94
2023-01-17T20:34:04.958Z,85577.94
2023-01-17T20:36:49.689Z,85577.75
2023-01-17T20:39:34.525Z,85577.38
2023-01-17T20:42:19.393Z,85565.59
2023-01-17T20:45:04.248Z,85579.97
2023-01-17T20:47:49.017Z,85570.31
2023-01-17T20:50:33.848Z,85569.31
2023-01-17T20:53:18.440Z,85566.78
2023-01-17T20:56:03.526Z,85558.41
2023-01-17T20:58:49.583Z,85556.84
2023-01-17T21:01:36.233Z,85565.13
2023-01-17T21:04:21.347Z,85572.47
2023-01-17T21:07:06.227Z,85575.25
2023-01-17T21:09:51.150Z,85569.09
2023-01-17T21:12:35.802Z,85563.31
2023-01-17T21:15:20.708Z,85575.38
2023-01-17T21:18:05.428Z,85566.84
2023-01-17T21:20:50.532Z,85563.56
2023-01-17T21:23:35.361Z,85558.94
2023-01-17T21:26:20.295Z,85566.78
2023-01-17T21:29:05.125Z,85562.50
2023-01-17T21:31:49.972Z,85563.16
2023-01-17T21:34:34.872Z,85562.59
2023-01-17T21:37:19.655Z,85557.13
2023-01-17T21:40:05.416Z,85559.00
2023-01-17T21:42:50.533Z,85562.19
2023-01-17T21:45:35.401Z,85555.22
2023-01-17T21:48:20.077Z,85560.53
2023-01-17T21:51:05.006Z,85567.84
2023-01-17T21:53:49.895Z,85565.34
2023-01-17T21:56:34.657Z,85576.25
2023-01-17T21:59:19.406Z,85574.19
2023-01-17T22:02:03.982Z,85576.28
2023-01-17T22:04:48.734Z,85566.06
2023-01-17T22:07:33.409Z,85578.16
2023-01-17T22:10:18.242Z,85580.88
2023-01-17T22:13:02.951Z,85584.50
2023-01-17T22:15:47.860Z,85585.69
2023-01-17T22:18:32.704Z,85596.34
2023-01-17T22:21:17.554Z,85596.69
2023-01-17T22:24:02.180Z,85603.22
2023-01-17T22:26:47.088Z,85602.56
2023-01-17T22:29:31.814Z,85618.63
2023-01-17T22:32:16.637Z,85626.44
2023-01-17T22:35:01.476Z,85629.16
2023-01-17T22:37:46.142Z,85642.13
2023-01-17T22:40:31.034Z,85641.59
2023-01-17T22:43:15.755Z,85649.81
2023-01-17T22:46:00.581Z,85660.09
2023-01-17T22:48:45.269Z,85660.94
2023-01-17T22:51:30.084Z,85657.66
2023-01-17T22:54:14.934Z,85667.03
2023-01-17T22:56:59.784Z,85671.28
2023-01-17T22:59:44.525Z,85670.78
2023-01-17T23:02:29.250Z,85670.09
2023-01-17T23:05:13.841Z,85658.47
2023-01-17T23:08:00.233Z,85672.13
2023-01-17T23:10:46.503Z,85667.16
2023-01-17T23:13:31.160Z,85665.25
2023-01-17T23:16:16.120Z,85654.50
2023-01-17T23:19:01.016Z,85663.19
2023-01-17T23:21:45.721Z,85661.81
2023-01-17T23:24:30.641Z,85658.22
2023-01-17T23:27:15.339Z,85653.63
2023-01-17T23:30:00.093Z,85657.34
2023-01-17T23:32:44.781Z,85657.16
2023-01-17T23:35:29.679Z,85655.13
2023-01-17T23:38:14.522Z,85652.84
2023-01-17T23:40:59.311Z,85651.97
2023-01-17T23:43:44.136Z,85643.91
2023-01-17T23:46:28.969Z,85659.78
2023-01-17T23:49:13.764Z,85660.28
2023-01-17T23:51:58.365Z,85670.06
2023-01-17T23:54:43.309Z,85667.84
2023-01-17T23:57:27.906Z,85669.94
